South Gate, California
Current Conditions -  °F | °C
As of 1:47 AM on Sunday 26 Oct 2014 (Local Time) from KCQT Reporting Station
Clear Clear  
Wind Chill: 63°   Ceiling: Unl
Heat Index: 63°   Visibility: 10mi
Dew Point: 58°   Wind: 0mph
Humidity: 84%   Direction: NA
Pressure: 30"   Gusts: NA
Location:  33.96°N, 118.2°W
Report Text: KCQT 260847Z AUTO 00000KT 10SM CLR 17/14 A3000 RMK AO2 SLP155 T01720144 55004
Loading
Personal Weather Stations






























Interactive Weather Map
Tropical Storm Tracking
New forecast layout! Learn more

10-Day Weather Forecast

Advertisements
Track Severe Weather on mobile